CheckWX is a tool to help pilots better visualize weather data.  It is not intended as a substitute for an official pre-flight weather briefing.

18:14:55 UTC

LEBL METAR
Barcelona International Airport
Barcelona, Spain
Current

45 mins ago

LEBL 211730Z 25011KT 9999 FEW030 13/07 Q1007 NOSIG
Observed
Nov-21 @ 17:30 UTC
Wind
  • 250° at 11 KTS
Visibility
10,000+ meters
Flight Rules
VFR
Cloud Levels
  • Few at 3,000' AGL
Temperature
13°C / 55°F
Dewpoint
C / 45°F
Humidity
67%
Altimeter
29.73" Hg
Pressure
1006.92 hPa
Previous

1 hour ago

LEBL 211700Z 25011KT 9999 FEW030 13/07 Q1007 NOSIG
Observed
Nov-21 @ 17:00 UTC
Wind
  • 250° at 11 KTS
Visibility
10,000+ meters
Flight Rules
VFR
Cloud Levels
  • Few at 3,000' AGL
Temperature
13°C / 55°F
Dewpoint
C / 45°F
Humidity
67%
Altimeter
29.73" Hg
Pressure
1006.92 hPa
Previous

2 hours ago

LEBL 211630Z 24013KT 9999 FEW030 13/07 Q1007 NOSIG
Observed
Nov-21 @ 16:30 UTC
Wind
  • 240° at 13 KTS
Visibility
10,000+ meters
Flight Rules
VFR
Cloud Levels
  • Few at 3,000' AGL
Temperature
13°C / 55°F
Dewpoint
C / 45°F
Humidity
67%
Altimeter
29.73" Hg
Pressure
1006.92 hPa